sensor_id;sensor_type;location;lat;lon;timestamp;temperature;humidity
16477;DHT22;8349;50.928;6.376;2022-12-07T04:03:02;4.50;99.90
16477;DHT22;8349;50.928;6.376;2022-12-07T04:05:28;4.50;99.90
16477;DHT22;8349;50.928;6.376;2022-12-07T04:07:55;4.50;99.90
16477;DHT22;8349;50.928;6.376;2022-12-07T04:10:22;4.50;99.90
16477;DHT22;8349;50.928;6.376;2022-12-07T04:12:49;4.50;99.90
16477;DHT22;8349;50.928;6.376;2022-12-07T04:15:15;4.50;99.90
16477;DHT22;8349;50.928;6.376;2022-12-07T04:17:42;4.40;99.90
16477;DHT22;8349;50.928;6.376;2022-12-07T04:20:11;4.40;99.90
16477;DHT22;8349;50.928;6.376;2022-12-07T04:22:38;4.40;99.90
16477;DHT22;8349;50.928;6.376;2022-12-07T04:25:05;4.40;99.90
16477;DHT22;8349;50.928;6.376;2022-12-07T04:27:32;4.40;99.90
16477;DHT22;8349;50.928;6.376;2022-12-07T04:29:59;4.40;99.90
16477;DHT22;8349;50.928;6.376;2022-12-07T04:32:26;4.40;99.90
16477;DHT22;8349;50.928;6.376;2022-12-07T04:34:53;4.40;99.90
16477;DHT22;8349;50.928;6.376;2022-12-07T04:37:21;4.40;99.90
16477;DHT22;8349;50.928;6.376;2022-12-07T04:39:48;4.40;99.90
16477;DHT22;8349;50.928;6.376;2022-12-07T04:42:14;4.40;99.90
16477;DHT22;8349;50.928;6.376;2022-12-07T04:44:41;4.30;99.90
16477;DHT22;8349;50.928;6.376;2022-12-07T04:47:08;4.30;99.90
16477;DHT22;8349;50.928;6.376;2022-12-07T04:49:35;4.30;99.90
16477;DHT22;8349;50.928;6.376;2022-12-07T04:52:02;4.20;99.90
16477;DHT22;8349;50.928;6.376;2022-12-07T04:54:30;4.20;99.90
16477;DHT22;8349;50.928;6.376;2022-12-07T04:56:57;4.10;99.90
16477;DHT22;8349;50.928;6.376;2022-12-07T04:59:24;4.10;99.90
16477;DHT22;8349;50.928;6.376;2022-12-07T05:01:50;4.10;99.90
16477;DHT22;8349;50.928;6.376;2022-12-07T05:04:17;4.10;99.90
16477;DHT22;8349;50.928;6.376;2022-12-07T05:06:44;4.00;99.90
16477;DHT22;8349;50.928;6.376;2022-12-07T05:09:11;4.10;99.90
16477;DHT22;8349;50.928;6.376;2022-12-07T05:11:39;4.10;99.90
16477;DHT22;8349;50.928;6.376;2022-12-07T05:14:07;4.10;99.90
16477;DHT22;8349;50.928;6.376;2022-12-07T05:16:34;4.20;99.90
16477;DHT22;8349;50.928;6.376;2022-12-07T05:19:01;4.30;99.90
16477;DHT22;8349;50.928;6.376;2022-12-07T05:21:28;4.30;99.90
16477;DHT22;8349;50.928;6.376;2022-12-07T05:23:54;4.30;99.90
16477;DHT22;8349;50.928;6.376;2022-12-07T05:26:21;4.30;99.90
16477;DHT22;8349;50.928;6.376;2022-12-07T05:28:51;4.30;99.90
16477;DHT22;8349;50.928;6.376;2022-12-07T05:31:18;4.40;99.90
16477;DHT22;8349;50.928;6.376;2022-12-07T05:33:44;4.40;99.90
16477;DHT22;8349;50.928;6.376;2022-12-07T05:36:11;4.40;99.90
16477;DHT22;8349;50.928;6.376;2022-12-07T05:38:38;4.40;99.90
16477;DHT22;8349;50.928;6.376;2022-12-07T05:41:06;4.40;99.90
16477;DHT22;8349;50.928;6.376;2022-12-07T05:43:33;4.40;99.90
16477;DHT22;8349;50.928;6.376;2022-12-07T05:46:01;4.30;99.90
16477;DHT22;8349;50.928;6.376;2022-12-07T05:48:28;4.30;99.90
16477;DHT22;8349;50.928;6.376;2022-12-07T05:50:54;4.30;99.90
16477;DHT22;8349;50.928;6.376;2022-12-07T05:53:21;4.30;99.90
16477;DHT22;8349;50.928;6.376;2022-12-07T05:55:48;4.30;99.90
16477;DHT22;8349;50.928;6.376;2022-12-07T05:58:15;4.30;99.90
16477;DHT22;8349;50.928;6.376;2022-12-07T06:01:00;4.30;99.90
16477;DHT22;8349;50.928;6.376;2022-12-07T06:03:27;4.30;99.90
16477;DHT22;8349;50.928;6.376;2022-12-07T06:05:54;4.30;99.90
16477;DHT22;8349;50.928;6.376;2022-12-07T06:08:21;4.30;99.90
16477;DHT22;8349;50.928;6.376;2022-12-07T06:10:47;4.30;99.90
16477;DHT22;8349;50.928;6.376;2022-12-07T06:13:36;4.30;99.90
16477;DHT22;8349;50.928;6.376;2022-12-07T06:16:03;4.40;99.90
16477;DHT22;8349;50.928;6.376;2022-12-07T06:18:30;4.30;99.90
16477;DHT22;8349;50.928;6.376;2022-12-07T06:20:57;4.30;99.90
16477;DHT22;8349;50.928;6.376;2022-12-07T06:23:24;4.40;99.90
16477;DHT22;8349;50.928;6.376;2022-12-07T06:25:51;4.40;99.90
16477;DHT22;8349;50.928;6.376;2022-12-07T06:28:17;4.40;99.90
16477;DHT22;8349;50.928;6.376;2022-12-07T06:30:44;4.40;99.90
16477;DHT22;8349;50.928;6.376;2022-12-07T06:33:12;4.30;99.90
16477;DHT22;8349;50.928;6.376;2022-12-07T06:35:39;4.30;99.90
16477;DHT22;8349;50.928;6.376;2022-12-07T06:38:06;4.40;99.90
16477;DHT22;8349;50.928;6.376;2022-12-07T06:40:33;4.40;99.90
16477;DHT22;8349;50.928;6.376;2022-12-07T06:42:59;4.30;99.90
16477;DHT22;8349;50.928;6.376;2022-12-07T06:45:26;4.40;99.90
16477;DHT22;8349;50.928;6.376;2022-12-07T06:47:53;4.30;99.90
16477;DHT22;8349;50.928;6.376;2022-12-07T06:50:21;4.30;99.90
16477;DHT22;8349;50.928;6.376;2022-12-07T06:52:48;4.30;99.90
16477;DHT22;8349;50.928;6.376;2022-12-07T06:55:15;4.30;99.90
16477;DHT22;8349;50.928;6.376;2022-12-07T06:57:41;4.30;99.90
16477;DHT22;8349;50.928;6.376;2022-12-07T07:00:09;4.20;99.90
16477;DHT22;8349;50.928;6.376;2022-12-07T07:02:35;4.20;99.90
16477;DHT22;8349;50.928;6.376;2022-12-07T07:05:02;4.20;99.90
16477;DHT22;8349;50.928;6.376;2022-12-07T07:07:31;4.20;99.90
16477;DHT22;8349;50.928;6.376;2022-12-07T07:09:57;4.20;99.90
16477;DHT22;8349;50.928;6.376;2022-12-07T07:12:24;4.20;99.90
16477;DHT22;8349;50.928;6.376;2022-12-07T07:14:51;4.20;99.90
16477;DHT22;8349;50.928;6.376;2022-12-07T07:17:18;4.20;99.90
16477;DHT22;8349;50.928;6.376;2022-12-07T07:19:45;4.20;99.90
16477;DHT22;8349;50.928;6.376;2022-12-07T07:22:12;4.20;99.90
16477;DHT22;8349;50.928;6.376;2022-12-07T07:24:40;4.20;99.90
16477;DHT22;8349;50.928;6.376;2022-12-07T07:27:07;4.30;99.90
16477;DHT22;8349;50.928;6.376;2022-12-07T07:29:33;4.30;99.90
16477;DHT22;8349;50.928;6.376;2022-12-07T07:32:00;4.30;99.90
16477;DHT22;8349;50.928;6.376;2022-12-07T07:34:27;4.30;99.90
16477;DHT22;8349;50.928;6.376;2022-12-07T07:36:54;4.20;99.90
16477;DHT22;8349;50.928;6.376;2022-12-07T07:39:20;4.20;99.90
16477;DHT22;8349;50.928;6.376;2022-12-07T07:41:49;4.20;99.90
16477;DHT22;8349;50.928;6.376;2022-12-07T07:44:23;4.20;99.90
16477;DHT22;8349;50.928;6.376;2022-12-07T07:46:50;4.20;99.90
16477;DHT22;8349;50.928;6.376;2022-12-07T07:49:17;4.20;99.90
16477;DHT22;8349;50.928;6.376;2022-12-07T07:51:44;4.30;99.90
16477;DHT22;8349;50.928;6.376;2022-12-07T07:54:11;4.20;99.90
16477;DHT22;8349;50.928;6.376;2022-12-07T07:56:37;4.30;99.90
16477;DHT22;8349;50.928;6.376;2022-12-07T07:59:06;4.30;99.90
16477;DHT22;8349;50.928;6.376;2022-12-07T08:01:33;4.30;99.90
16477;DHT22;8349;50.928;6.376;2022-12-07T08:04:00;4.30;99.90
16477;DHT22;8349;50.928;6.376;2022-12-07T08:06:27;4.40;99.90
16477;DHT22;8349;50.928;6.376;2022-12-07T08:08:54;4.40;99.90
16477;DHT22;8349;50.928;6.376;2022-12-07T08:11:21;4.50;99.90
16477;DHT22;8349;50.928;6.376;2022-12-07T08:13:47;4.50;99.90
16477;DHT22;8349;50.928;6.376;2022-12-07T08:16:16;4.50;99.90
16477;DHT22;8349;50.928;6.376;2022-12-07T08:18:43;4.50;99.90
16477;DHT22;8349;50.928;6.376;2022-12-07T08:21:10;4.50;99.90
16477;DHT22;8349;50.928;6.376;2022-12-07T08:23:37;4.50;99.90
16477;DHT22;8349;50.928;6.376;2022-12-07T08:26:05;4.50;99.90
16477;DHT22;8349;50.928;6.376;2022-12-07T08:28:32;4.40;99.90
16477;DHT22;8349;50.928;6.376;2022-12-07T08:30:59;4.40;99.90
16477;DHT22;8349;50.928;6.376;2022-12-07T08:33:28;4.30;99.90
16477;DHT22;8349;50.928;6.376;2022-12-07T08:35:55;4.30;99.90
16477;DHT22;8349;50.928;6.376;2022-12-07T08:38:26;4.20;99.90
16477;DHT22;8349;50.928;6.376;2022-12-07T08:40:53;4.20;99.90
16477;DHT22;8349;50.928;6.376;2022-12-07T08:43:20;4.20;99.90
16477;DHT22;8349;50.928;6.376;2022-12-07T08:45:47;4.30;99.90
16477;DHT22;8349;50.928;6.376;2022-12-07T08:48:14;4.40;99.90
16477;DHT22;8349;50.928;6.376;2022-12-07T08:50:44;4.40;99.90
16477;DHT22;8349;50.928;6.376;2022-12-07T08:53:11;4.40;99.90
16477;DHT22;8349;50.928;6.376;2022-12-07T08:55:38;4.40;99.90
16477;DHT22;8349;50.928;6.376;2022-12-07T08:58:04;4.40;99.90
16477;DHT22;8349;50.928;6.376;2022-12-07T09:00:31;4.50;99.90
16477;DHT22;8349;50.928;6.376;2022-12-07T09:02:58;4.60;99.90
16477;DHT22;8349;50.928;6.376;2022-12-07T09:05:25;4.90;99.90
16477;DHT22;8349;50.928;6.376;2022-12-07T09:07:54;5.10;99.90
16477;DHT22;8349;50.928;6.376;2022-12-07T09:10:22;5.20;99.90
16477;DHT22;8349;50.928;6.376;2022-12-07T09:12:49;5.20;99.90
16477;DHT22;8349;50.928;6.376;2022-12-07T09:15:15;5.30;99.90
16477;DHT22;8349;50.928;6.376;2022-12-07T09:17:42;5.30;99.90
16477;DHT22;8349;50.928;6.376;2022-12-07T09:20:10;5.30;99.90
16477;DHT22;8349;50.928;6.376;2022-12-07T09:22:36;5.30;99.90
16477;DHT22;8349;50.928;6.376;2022-12-07T09:25:05;5.20;99.90
16477;DHT22;8349;50.928;6.376;2022-12-07T09:27:32;5.20;99.90
16477;DHT22;8349;50.928;6.376;2022-12-07T09:29:59;5.30;99.90
16477;DHT22;8349;50.928;6.376;2022-12-07T09:32:25;5.40;99.90
16477;DHT22;8349;50.928;6.376;2022-12-07T09:34:52;5.50;99.90
16477;DHT22;8349;50.928;6.376;2022-12-07T09:37:19;5.60;99.90
16477;DHT22;8349;50.928;6.376;2022-12-07T09:39:46;5.90;99.90
16477;DHT22;8349;50.928;6.376;2022-12-07T09:42:17;6.30;99.90
16477;DHT22;8349;50.928;6.376;2022-12-07T09:44:45;6.50;99.90
16477;DHT22;8349;50.928;6.376;2022-12-07T09:47:12;6.70;99.90
16477;DHT22;8349;50.928;6.376;2022-12-07T09:49:39;6.70;99.90
16477;DHT22;8349;50.928;6.376;2022-12-07T09:52:16;6.90;99.90
16477;DHT22;8349;50.928;6.376;2022-12-07T09:54:45;6.90;99.90
16477;DHT22;8349;50.928;6.376;2022-12-07T09:57:12;6.60;99.90
16477;DHT22;8349;50.928;6.376;2022-12-07T09:59:40;6.50;99.90
16477;DHT22;8349;50.928;6.376;2022-12-07T10:02:23;6.30;99.90
16477;DHT22;8349;50.928;6.376;2022-12-07T10:04:50;6.20;99.90
16477;DHT22;8349;50.928;6.376;2022-12-07T10:07:17;6.20;99.90
16477;DHT22;8349;50.928;6.376;2022-12-07T10:09:44;6.30;99.90
16477;DHT22;8349;50.928;6.376;2022-12-07T10:12:11;6.60;99.90
16477;DHT22;8349;50.928;6.376;2022-12-07T10:14:39;6.60;99.90
16477;DHT22;8349;50.928;6.376;2022-12-07T10:19:49;6.80;99.90
16477;DHT22;8349;50.928;6.376;2022-12-07T10:22:16;8.40;99.90
16477;DHT22;8349;50.928;6.376;2022-12-07T10:24:45;11.10;99.90
16477;DHT22;8349;50.928;6.376;2022-12-07T10:27:30;10.60;99.90
16477;DHT22;8349;50.928;6.376;2022-12-07T10:29:57;9.30;99.90
16477;DHT22;8349;50.928;6.376;2022-12-07T10:32:27;7.80;99.90
16477;DHT22;8349;50.928;6.376;2022-12-07T10:35:15;7.40;99.90
16477;DHT22;8349;50.928;6.376;2022-12-07T10:37:44;6.80;99.90
16477;DHT22;8349;50.928;6.376;2022-12-07T10:40:23;6.60;99.90
16477;DHT22;8349;50.928;6.376;2022-12-07T10:42:59;6.60;99.90
16477;DHT22;8349;50.928;6.376;2022-12-07T10:45:26;6.70;99.90
16477;DHT22;8349;50.928;6.376;2022-12-07T10:47:55;6.70;99.90
16477;DHT22;8349;50.928;6.376;2022-12-07T10:53:20;6.40;99.90
16477;DHT22;8349;50.928;6.376;2022-12-07T10:55:55;6.40;99.90
16477;DHT22;8349;50.928;6.376;2022-12-07T10:58:31;7.00;99.90
16477;DHT22;8349;50.928;6.376;2022-12-07T11:01:03;8.00;99.90
16477;DHT22;8349;50.928;6.376;2022-12-07T11:03:41;9.00;99.90
16477;DHT22;8349;50.928;6.376;2022-12-07T11:06:14;9.20;99.90
16477;DHT22;8349;50.928;6.376;2022-12-07T11:08:52;8.50;99.90
16477;DHT22;8349;50.928;6.376;2022-12-07T11:11:23;10.20;99.90
16477;DHT22;8349;50.928;6.376;2022-12-07T11:13:54;9.40;99.90
16477;DHT22;8349;50.928;6.376;2022-12-07T11:16:24;8.40;99.90
16477;DHT22;8349;50.928;6.376;2022-12-07T11:18:59;7.80;99.90
16477;DHT22;8349;50.928;6.376;2022-12-07T11:21:29;8.60;99.90
16477;DHT22;8349;50.928;6.376;2022-12-07T11:24:01;10.00;99.90
16477;DHT22;8349;50.928;6.376;2022-12-07T11:26:37;11.60;99.90
16477;DHT22;8349;50.928;6.376;2022-12-07T11:29:13;10.60;99.90
16477;DHT22;8349;50.928;6.376;2022-12-07T11:31:47;10.20;99.90
16477;DHT22;8349;50.928;6.376;2022-12-07T11:34:19;9.20;99.90
16477;DHT22;8349;50.928;6.376;2022-12-07T11:36:51;8.40;99.90
16477;DHT22;8349;50.928;6.376;2022-12-07T11:39:22;8.10;99.90
16477;DHT22;8349;50.928;6.376;2022-12-07T11:41:52;7.90;99.90
16477;DHT22;8349;50.928;6.376;2022-12-07T11:44:23;7.60;99.90
16477;DHT22;8349;50.928;6.376;2022-12-07T11:46:54;7.80;99.90
16477;DHT22;8349;50.928;6.376;2022-12-07T11:49:23;7.60;99.90
16477;DHT22;8349;50.928;6.376;2022-12-07T11:51:53;7.30;99.90
16477;DHT22;8349;50.928;6.376;2022-12-07T11:54:23;7.00;99.90
16477;DHT22;8349;50.928;6.376;2022-12-07T11:56:51;6.90;99.90
16477;DHT22;8349;50.928;6.376;2022-12-07T11:59:22;6.80;99.90
16477;DHT22;8349;50.928;6.376;2022-12-07T12:01:51;6.70;99.90
16477;DHT22;8349;50.928;6.376;2022-12-07T12:04:23;6.50;99.90
16477;DHT22;8349;50.928;6.376;2022-12-07T12:06:52;6.40;99.90
16477;DHT22;8349;50.928;6.376;2022-12-07T12:09:20;6.30;99.90
16477;DHT22;8349;50.928;6.376;2022-12-07T12:11:56;6.40;99.90
16477;DHT22;8349;50.928;6.376;2022-12-07T12:17:13;6.60;99.90
16477;DHT22;8349;50.928;6.376;2022-12-07T12:19:55;6.70;99.90
16477;DHT22;8349;50.928;6.376;2022-12-07T12:22:26;6.70;99.90
16477;DHT22;8349;50.928;6.376;2022-12-07T12:24:55;6.70;99.90
16477;DHT22;8349;50.928;6.376;2022-12-07T12:27:24;6.90;99.90
16477;DHT22;8349;50.928;6.376;2022-12-07T12:29:52;7.30;99.90
16477;DHT22;8349;50.928;6.376;2022-12-07T12:32:20;7.40;99.90
16477;DHT22;8349;50.928;6.376;2022-12-07T12:34:57;7.30;99.90
16477;DHT22;8349;50.928;6.376;2022-12-07T12:37:44;7.10;99.90
16477;DHT22;8349;50.928;6.376;2022-12-07T12:42:58;7.40;99.90
16477;DHT22;8349;50.928;6.376;2022-12-07T12:45:25;7.50;99.90
16477;DHT22;8349;50.928;6.376;2022-12-07T12:48:02;8.00;99.90
16477;DHT22;8349;50.928;6.376;2022-12-07T12:50:30;8.30;99.90
16477;DHT22;8349;50.928;6.376;2022-12-07T12:55:48;7.90;99.90
16477;DHT22;8349;50.928;6.376;2022-12-07T12:58:30;7.90;99.90
16477;DHT22;8349;50.928;6.376;2022-12-07T13:03:51;8.30;99.90
16477;DHT22;8349;50.928;6.376;2022-12-07T13:06:19;8.20;99.90
16477;DHT22;8349;50.928;6.376;2022-12-07T13:08:46;8.50;99.90
16477;DHT22;8349;50.928;6.376;2022-12-07T13:11:17;8.80;99.90
16477;DHT22;8349;50.928;6.376;2022-12-07T13:13:46;8.40;99.90
16477;DHT22;8349;50.928;6.376;2022-12-07T13:18:58;8.50;99.90
16477;DHT22;8349;50.928;6.376;2022-12-07T13:21:41;8.10;99.90
16477;DHT22;8349;50.928;6.376;2022-12-07T13:24:08;7.90;99.90
16477;DHT22;8349;50.928;6.376;2022-12-07T13:26:38;7.60;99.90
16477;DHT22;8349;50.928;6.376;2022-12-07T13:29:10;7.30;99.90
16477;DHT22;8349;50.928;6.376;2022-12-07T13:31:38;7.20;99.90
16477;DHT22;8349;50.928;6.376;2022-12-07T13:34:26;7.10;99.90
16477;DHT22;8349;50.928;6.376;2022-12-07T13:36:53;7.00;99.90
16477;DHT22;8349;50.928;6.376;2022-12-07T13:39:21;6.90;99.90
16477;DHT22;8349;50.928;6.376;2022-12-07T13:41:49;6.80;99.90
16477;DHT22;8349;50.928;6.376;2022-12-07T13:44:18;6.60;99.90
16477;DHT22;8349;50.928;6.376;2022-12-07T13:46:47;6.60;99.90
16477;DHT22;8349;50.928;6.376;2022-12-07T13:49:20;6.60;99.90
16477;DHT22;8349;50.928;6.376;2022-12-07T13:51:47;6.60;99.90
16477;DHT22;8349;50.928;6.376;2022-12-07T13:54:16;6.60;99.90
16477;DHT22;8349;50.928;6.376;2022-12-07T13:56:43;6.60;99.90
16477;DHT22;8349;50.928;6.376;2022-12-07T13:59:13;6.70;99.90
16477;DHT22;8349;50.928;6.376;2022-12-07T14:01:40;6.70;99.90
16477;DHT22;8349;50.928;6.376;2022-12-07T14:04:17;6.70;99.90
16477;DHT22;8349;50.928;6.376;2022-12-07T14:06:48;6.80;99.90
16477;DHT22;8349;50.928;6.376;2022-12-07T14:09:18;6.90;99.90
16477;DHT22;8349;50.928;6.376;2022-12-07T14:11:46;6.90;99.90
16477;DHT22;8349;50.928;6.376;2022-12-07T14:14:15;6.80;99.90
16477;DHT22;8349;50.928;6.376;2022-12-07T14:16:43;6.70;99.90
16477;DHT22;8349;50.928;6.376;2022-12-07T14:22:05;6.60;99.90
16477;DHT22;8349;50.928;6.376;2022-12-07T14:24:33;6.50;99.90
16477;DHT22;8349;50.928;6.376;2022-12-07T14:27:15;6.40;99.90
16477;DHT22;8349;50.928;6.376;2022-12-07T14:29:42;6.50;99.90
16477;DHT22;8349;50.928;6.376;2022-12-07T14:32:17;6.40;99.90
16477;DHT22;8349;50.928;6.376;2022-12-07T14:34:52;6.50;99.90
16477;DHT22;8349;50.928;6.376;2022-12-07T14:37:19;6.50;99.90
16477;DHT22;8349;50.928;6.376;2022-12-07T14:39:48;6.40;99.90
16477;DHT22;8349;50.928;6.376;2022-12-07T14:42:14;6.30;99.90
16477;DHT22;8349;50.928;6.376;2022-12-07T14:44:42;6.30;99.90
16477;DHT22;8349;50.928;6.376;2022-12-07T14:47:09;6.20;99.90
16477;DHT22;8349;50.928;6.376;2022-12-07T14:49:36;6.20;99.90
16477;DHT22;8349;50.928;6.376;2022-12-07T14:52:03;6.20;99.90
16477;DHT22;8349;50.928;6.376;2022-12-07T14:54:31;6.20;99.90
16477;DHT22;8349;50.928;6.376;2022-12-07T14:56:59;6.20;99.90
16477;DHT22;8349;50.928;6.376;2022-12-07T14:59:26;6.10;99.90
16477;DHT22;8349;50.928;6.376;2022-12-07T15:01:53;6.10;99.90
16477;DHT22;8349;50.928;6.376;2022-12-07T15:04:20;6.10;99.90
16477;DHT22;8349;50.928;6.376;2022-12-07T15:06:54;6.00;99.90
16477;DHT22;8349;50.928;6.376;2022-12-07T15:09:21;6.00;99.90
16477;DHT22;8349;50.928;6.376;2022-12-07T15:11:48;5.90;99.90
16477;DHT22;8349;50.928;6.376;2022-12-07T15:14:16;5.90;99.90
16477;DHT22;8349;50.928;6.376;2022-12-07T15:16:43;5.90;99.90
16477;DHT22;8349;50.928;6.376;2022-12-07T15:19:10;5.80;99.90
16477;DHT22;8349;50.928;6.376;2022-12-07T15:21:39;5.80;99.90
16477;DHT22;8349;50.928;6.376;2022-12-07T15:24:06;5.70;99.90
16477;DHT22;8349;50.928;6.376;2022-12-07T15:26:33;5.70;99.90
16477;DHT22;8349;50.928;6.376;2022-12-07T15:28:59;5.70;99.90
16477;DHT22;8349;50.928;6.376;2022-12-07T15:31:27;5.70;99.90
16477;DHT22;8349;50.928;6.376;2022-12-07T15:33:54;5.60;99.90
16477;DHT22;8349;50.928;6.376;2022-12-07T15:36:22;5.60;99.90
16477;DHT22;8349;50.928;6.376;2022-12-07T15:38:49;5.60;99.90
16477;DHT22;8349;50.928;6.376;2022-12-07T15:41:16;5.60;99.90
16477;DHT22;8349;50.928;6.376;2022-12-07T15:43:42;5.60;99.90
16477;DHT22;8349;50.928;6.376;2022-12-07T15:46:30;5.60;99.90
16477;DHT22;8349;50.928;6.376;2022-12-07T15:48:57;5.60;99.90
16477;DHT22;8349;50.928;6.376;2022-12-07T15:51:24;5.60;99.90
16477;DHT22;8349;50.928;6.376;2022-12-07T15:53:51;5.50;99.90
16477;DHT22;8349;50.928;6.376;2022-12-07T15:56:17;5.50;99.90
16477;DHT22;8349;50.928;6.376;2022-12-07T15:58:44;5.40;99.90
16477;DHT22;8349;50.928;6.376;2022-12-07T16:03:42;5.20;99.90
16477;DHT22;8349;50.928;6.376;2022-12-07T16:06:09;5.00;99.90
16477;DHT22;8349;50.928;6.376;2022-12-07T16:08:36;4.90;99.90
16477;DHT22;8349;50.928;6.376;2022-12-07T16:11:04;4.80;99.90
16477;DHT22;8349;50.928;6.376;2022-12-07T16:13:31;4.70;99.90
16477;DHT22;8349;50.928;6.376;2022-12-07T16:15:58;4.70;99.90
16477;DHT22;8349;50.928;6.376;2022-12-07T16:18:24;4.60;99.90
16477;DHT22;8349;50.928;6.376;2022-12-07T16:20:52;4.60;99.90
16477;DHT22;8349;50.928;6.376;2022-12-07T16:23:19;4.50;99.90
16477;DHT22;8349;50.928;6.376;2022-12-07T16:25:46;4.50;99.90
16477;DHT22;8349;50.928;6.376;2022-12-07T16:28:13;4.50;99.90
16477;DHT22;8349;50.928;6.376;2022-12-07T16:30:39;4.40;99.90
16477;DHT22;8349;50.928;6.376;2022-12-07T16:33:06;4.40;99.90
16477;DHT22;8349;50.928;6.376;2022-12-07T16:35:33;4.40;99.90
16477;DHT22;8349;50.928;6.376;2022-12-07T16:38:01;4.50;99.90
16477;DHT22;8349;50.928;6.376;2022-12-07T16:40:28;4.50;99.90
16477;DHT22;8349;50.928;6.376;2022-12-07T16:42:55;4.50;99.90
16477;DHT22;8349;50.928;6.376;2022-12-07T16:45:21;4.50;99.90
16477;DHT22;8349;50.928;6.376;2022-12-07T16:47:48;4.50;99.90
16477;DHT22;8349;50.928;6.376;2022-12-07T16:50:15;4.50;99.90
16477;DHT22;8349;50.928;6.376;2022-12-07T16:52:42;4.50;99.90
16477;DHT22;8349;50.928;6.376;2022-12-07T16:55:10;4.50;99.90
16477;DHT22;8349;50.928;6.376;2022-12-07T16:57:37;4.60;99.90
16477;DHT22;8349;50.928;6.376;2022-12-07T17:00:04;4.60;99.90
16477;DHT22;8349;50.928;6.376;2022-12-07T17:02:32;4.70;99.90
16477;DHT22;8349;50.928;6.376;2022-12-07T17:04:58;4.70;99.90
16477;DHT22;8349;50.928;6.376;2022-12-07T17:07:25;4.60;99.90
16477;DHT22;8349;50.928;6.376;2022-12-07T17:09:52;4.70;99.90
16477;DHT22;8349;50.928;6.376;2022-12-07T17:12:20;4.70;99.90
16477;DHT22;8349;50.928;6.376;2022-12-07T17:14:47;4.70;99.90
16477;DHT22;8349;50.928;6.376;2022-12-07T17:17:31;4.70;99.90
16477;DHT22;8349;50.928;6.376;2022-12-07T17:19:58;4.70;99.90
16477;DHT22;8349;50.928;6.376;2022-12-07T17:22:25;4.80;99.90
16477;DHT22;8349;50.928;6.376;2022-12-07T17:24:52;4.80;99.90
16477;DHT22;8349;50.928;6.376;2022-12-07T17:27:19;4.80;99.90
16477;DHT22;8349;50.928;6.376;2022-12-07T17:29:47;4.80;99.90
16477;DHT22;8349;50.928;6.376;2022-12-07T17:32:13;4.80;99.90
16477;DHT22;8349;50.928;6.376;2022-12-07T17:34:40;4.80;99.90
16477;DHT22;8349;50.928;6.376;2022-12-07T17:37:07;4.80;99.90
16477;DHT22;8349;50.928;6.376;2022-12-07T17:39:34;4.80;99.90
16477;DHT22;8349;50.928;6.376;2022-12-07T17:42:01;4.80;99.90
16477;DHT22;8349;50.928;6.376;2022-12-07T17:44:46;4.70;99.90
16477;DHT22;8349;50.928;6.376;2022-12-07T17:47:13;4.70;99.90
16477;DHT22;8349;50.928;6.376;2022-12-07T17:49:42;4.70;99.90
16477;DHT22;8349;50.928;6.376;2022-12-07T17:52:11;4.70;99.90
16477;DHT22;8349;50.928;6.376;2022-12-07T17:54:55;4.70;99.90
16477;DHT22;8349;50.928;6.376;2022-12-07T17:57:22;4.70;99.90
16477;DHT22;8349;50.928;6.376;2022-12-07T17:59:50;4.70;99.90
16477;DHT22;8349;50.928;6.376;2022-12-07T18:02:17;4.70;99.90
16477;DHT22;8349;50.928;6.376;2022-12-07T18:04:44;4.70;99.90
16477;DHT22;8349;50.928;6.376;2022-12-07T18:07:11;4.70;99.90
16477;DHT22;8349;50.928;6.376;2022-12-07T18:09:39;4.70;99.90
16477;DHT22;8349;50.928;6.376;2022-12-07T18:12:06;4.60;99.90
16477;DHT22;8349;50.928;6.376;2022-12-07T18:14:33;4.60;99.90
16477;DHT22;8349;50.928;6.376;2022-12-07T18:17:02;4.60;99.90
16477;DHT22;8349;50.928;6.376;2022-12-07T18:19:28;4.50;99.90
16477;DHT22;8349;50.928;6.376;2022-12-07T18:21:55;4.50;99.90
16477;DHT22;8349;50.928;6.376;2022-12-07T18:24:22;4.50;99.90
16477;DHT22;8349;50.928;6.376;2022-12-07T18:26:49;4.50;99.90
16477;DHT22;8349;50.928;6.376;2022-12-07T18:29:17;4.50;99.90
16477;DHT22;8349;50.928;6.376;2022-12-07T18:31:45;4.50;99.90
16477;DHT22;8349;50.928;6.376;2022-12-07T18:34:16;4.50;99.90
16477;DHT22;8349;50.928;6.376;2022-12-07T18:36:43;4.50;99.90
16477;DHT22;8349;50.928;6.376;2022-12-07T18:39:10;4.50;99.90
16477;DHT22;8349;50.928;6.376;2022-12-07T18:41:37;4.50;99.90
16477;DHT22;8349;50.928;6.376;2022-12-07T18:44:04;4.50;99.90
16477;DHT22;8349;50.928;6.376;2022-12-07T18:46:32;4.50;99.90
16477;DHT22;8349;50.928;6.376;2022-12-07T18:48:59;4.50;99.90
16477;DHT22;8349;50.928;6.376;2022-12-07T18:51:28;4.60;99.90
16477;DHT22;8349;50.928;6.376;2022-12-07T18:53:54;4.60;99.90
16477;DHT22;8349;50.928;6.376;2022-12-07T18:56:22;4.60;99.90
16477;DHT22;8349;50.928;6.376;2022-12-07T18:58:49;4.60;99.90
16477;DHT22;8349;50.928;6.376;2022-12-07T19:01:34;4.60;99.90
16477;DHT22;8349;50.928;6.376;2022-12-07T19:04:01;4.60;99.90
16477;DHT22;8349;50.928;6.376;2022-12-07T19:06:30;4.60;99.90
16477;DHT22;8349;50.928;6.376;2022-12-07T19:08:57;4.60;99.90
16477;DHT22;8349;50.928;6.376;2022-12-07T19:11:24;4.60;99.90
16477;DHT22;8349;50.928;6.376;2022-12-07T19:14:09;4.60;99.90
16477;DHT22;8349;50.928;6.376;2022-12-07T19:16:36;4.60;99.90
16477;DHT22;8349;50.928;6.376;2022-12-07T19:19:03;4.60;99.90
16477;DHT22;8349;50.928;6.376;2022-12-07T19:21:31;4.60;99.90
16477;DHT22;8349;50.928;6.376;2022-12-07T19:23:58;4.60;99.90
16477;DHT22;8349;50.928;6.376;2022-12-07T19:26:28;4.60;99.90
16477;DHT22;8349;50.928;6.376;2022-12-07T19:28:55;4.60;99.90
16477;DHT22;8349;50.928;6.376;2022-12-07T19:31:21;4.60;99.90
16477;DHT22;8349;50.928;6.376;2022-12-07T19:33:48;4.50;99.90
16477;DHT22;8349;50.928;6.376;2022-12-07T19:36:15;4.50;99.90
16477;DHT22;8349;50.928;6.376;2022-12-07T19:38:43;4.50;99.90
16477;DHT22;8349;50.928;6.376;2022-12-07T19:41:11;4.60;99.90
16477;DHT22;8349;50.928;6.376;2022-12-07T19:43:58;4.50;99.90
16477;DHT22;8349;50.928;6.376;2022-12-07T19:46:25;4.50;99.90
16477;DHT22;8349;50.928;6.376;2022-12-07T19:48:52;4.50;99.90
16477;DHT22;8349;50.928;6.376;2022-12-07T19:51:19;4.50;99.90
16477;DHT22;8349;50.928;6.376;2022-12-07T19:53:47;4.50;99.90
16477;DHT22;8349;50.928;6.376;2022-12-07T19:56:14;4.50;99.90
16477;DHT22;8349;50.928;6.376;2022-12-07T19:58:41;4.50;99.90
16477;DHT22;8349;50.928;6.376;2022-12-07T20:01:08;4.50;99.90
16477;DHT22;8349;50.928;6.376;2022-12-07T20:03:35;4.50;99.90
16477;DHT22;8349;50.928;6.376;2022-12-07T20:06:06;4.40;99.90
16477;DHT22;8349;50.928;6.376;2022-12-07T20:08:33;4.40;99.90
16477;DHT22;8349;50.928;6.376;2022-12-07T20:11:01;4.40;99.90
16477;DHT22;8349;50.928;6.376;2022-12-07T20:13:49;4.30;99.90
16477;DHT22;8349;50.928;6.376;2022-12-07T20:16:15;4.30;99.90
16477;DHT22;8349;50.928;6.376;2022-12-07T20:18:41;4.30;99.90
16477;DHT22;8349;50.928;6.376;2022-12-07T20:21:08;4.30;99.90
16477;DHT22;8349;50.928;6.376;2022-12-07T20:23:35;4.30;99.90
16477;DHT22;8349;50.928;6.376;2022-12-07T20:26:04;4.30;99.90
16477;DHT22;8349;50.928;6.376;2022-12-07T20:28:31;4.20;99.90
16477;DHT22;8349;50.928;6.376;2022-12-07T20:30:59;4.20;99.90
16477;DHT22;8349;50.928;6.376;2022-12-07T20:33:26;4.20;99.90
16477;DHT22;8349;50.928;6.376;2022-12-07T20:35:57;4.20;99.90
16477;DHT22;8349;50.928;6.376;2022-12-07T20:38:24;4.20;99.90